Terminal Aerodrome Forecast
Issued by NWS Atlanta, GA

Home | Current Version | Previous Version | Text Only | Print | Product List | Glossary On
Versions: 1 2 3 4 5 6 7 8 9 10 11 12 13 14 15 16 17 18 19 20 21 22 23 24 25 26 27 28 29 30 31 32 33 34 35 36 37 38 39 40 41 42
000
FTUS42 KFFC 222320
TAFATL
TAF
KATL 222320Z 2300/2406 02005KT P6SM FEW250
     FM230500 08004KT P6SM SKC
     FM231400 11007KT P6SM FEW250
     FM231700 11010G16KT P6SM FEW045
     FM240100 10006KT P6SM SKC=

USA.gov is the U.S. government's official web portal to all federal, state and local government web resources and services.